createdAt,value
2019-02-03T00:00:12.346Z,96912.16
2019-02-03T00:02:43.336Z,96904.86
2019-02-03T00:05:14.831Z,96905.49
2019-02-03T00:07:45.046Z,96907.06
2019-02-03T00:10:15.292Z,96908.38
2019-02-03T00:12:45.611Z,96909.14
2019-02-03T00:15:15.908Z,96904.36
2019-02-03T00:17:46.247Z,96897.49
2019-02-03T00:20:16.658Z,96895.98
2019-02-03T00:22:47.129Z,96896.02
2019-02-03T00:25:17.393Z,96895.98
2019-02-03T00:27:47.702Z,96888.45
2019-02-03T00:30:18.145Z,96891.94
2019-02-03T00:32:51.511Z,96900.17
2019-02-03T00:35:20.479Z,96888.08
2019-02-03T00:37:50.800Z,96884.53
2019-02-03T00:40:21.433Z,96878.60
2019-02-03T00:42:51.873Z,96881.28
2019-02-03T00:45:22.073Z,96888.05
2019-02-03T00:47:52.213Z,96892.00
2019-02-03T00:50:22.425Z,96882.59
2019-02-03T00:52:52.556Z,96888.98
2019-02-03T00:55:22.757Z,96891.94
2019-02-03T00:57:57.902Z,96898.76
2019-02-03T01:00:28.246Z,96895.98
2019-02-03T01:02:58.380Z,96887.34
2019-02-03T01:05:28.668Z,96894.88
2019-02-03T01:07:59.126Z,96900.58
2019-02-03T01:10:29.709Z,96903.72
2019-02-03T01:12:59.905Z,96903.02
2019-02-03T01:15:32.438Z,96912.30
2019-02-03T01:18:03.414Z,96918.66
2019-02-03T01:20:33.701Z,96922.88
2019-02-03T01:23:04.512Z,96919.13
2019-02-03T01:25:35.003Z,96917.02
2019-02-03T01:28:05.935Z,96911.59
2019-02-03T01:30:36.315Z,96905.27
2019-02-03T01:33:06.658Z,96906.00
2019-02-03T01:35:37.468Z,96922.61
2019-02-03T01:38:07.980Z,96922.61
2019-02-03T01:40:38.145Z,96937.61
2019-02-03T01:43:08.308Z,96937.84
2019-02-03T01:45:38.724Z,96931.75
2019-02-03T01:48:09.444Z,96940.86
2019-02-03T01:50:39.822Z,96953.75
2019-02-03T01:53:10.076Z,96961.48
2019-02-03T01:55:40.222Z,96971.37
2019-02-03T01:58:10.335Z,96964.70
2019-02-03T02:00:41.270Z,96972.00
2019-02-03T02:03:11.505Z,96984.92
2019-02-03T02:05:41.726Z,96989.73
2019-02-03T02:08:11.950Z,96991.25
2019-02-03T02:10:42.309Z,96995.51
2019-02-03T02:13:12.443Z,97001.14
2019-02-03T02:15:42.633Z,96993.63
2019-02-03T02:18:13.080Z,97002.74
2019-02-03T02:20:43.334Z,97000.13
2019-02-03T02:23:13.579Z,97014.02
2019-02-03T02:25:44.024Z,97028.28
2019-02-03T02:28:14.460Z,97039.30
2019-02-03T02:30:44.888Z,97048.67
2019-02-03T02:33:15.056Z,97048.64
2019-02-03T02:35:45.414Z,97042.48
2019-02-03T02:38:15.527Z,97036.14
2019-02-03T02:40:45.752Z,97043.37
2019-02-03T02:43:15.960Z,97040.56
2019-02-03T02:45:46.146Z,97044.93
2019-02-03T02:48:16.519Z,97047.64
2019-02-03T02:50:49.540Z,97050.64
2019-02-03T02:53:19.873Z,97056.36
2019-02-03T02:55:50.631Z,97056.87
2019-02-03T02:58:20.981Z,97062.45
2019-02-03T03:00:51.296Z,97059.81
2019-02-03T03:03:21.451Z,97058.16
2019-02-03T03:05:53.325Z,97052.85
2019-02-03T03:08:23.621Z,97058.16
2019-02-03T03:10:53.871Z,97061.05
2019-02-03T03:13:24.313Z,97058.37
2019-02-03T03:15:54.451Z,97050.64
2019-02-03T03:18:24.601Z,97052.67
2019-02-03T03:20:54.770Z,97054.84
2019-02-03T03:23:24.984Z,97054.84
2019-02-03T03:25:55.347Z,97046.91
2019-02-03T03:28:25.595Z,97047.66
2019-02-03T03:30:56.383Z,97053.31
2019-02-03T03:33:26.890Z,97050.13
2019-02-03T03:35:57.056Z,97051.78
2019-02-03T03:38:32.462Z,97040.48
2019-02-03T03:41:03.126Z,97046.43
2019-02-03T03:43:33.506Z,97051.28
2019-02-03T03:46:06.501Z,97055.22
2019-02-03T03:48:35.717Z,97062.16
2019-02-03T03:51:05.984Z,97051.96
2019-02-03T03:53:36.218Z,97053.91
2019-02-03T03:56:06.510Z,97057.63
2019-02-03T03:58:36.656Z,97066.92
2019-02-03T04:01:07.526Z,97077.39
2019-02-03T04:03:37.816Z,97088.41
2019-02-03T04:06:08.148Z,97091.75
2019-02-03T04:08:45.273Z,97095.97
2019-02-03T04:11:10.409Z,97107.97
2019-02-03T04:13:40.645Z,97115.45
2019-02-03T04:16:10.853Z,97116.59
2019-02-03T04:18:40.974Z,97114.88
2019-02-03T04:21:11.122Z,97124.93
2019-02-03T04:23:41.381Z,97129.22
2019-02-03T04:26:11.725Z,97130.70
2019-02-03T04:28:42.035Z,97139.23
2019-02-03T04:31:12.667Z,97136.63
2019-02-03T04:33:43.028Z,97144.52
2019-02-03T04:36:13.270Z,97145.61
2019-02-03T04:38:43.626Z,97148.14
2019-02-03T04:41:13.892Z,97147.50
2019-02-03T04:43:44.146Z,97156.63
2019-02-03T04:46:15.113Z,97160.39
2019-02-03T04:48:45.227Z,97153.67
2019-02-03T04:51:15.743Z,97158.81
2019-02-03T04:53:45.904Z,97162.55
2019-02-03T04:56:16.123Z,97168.91
2019-02-03T04:58:46.853Z,97176.52
2019-02-03T05:01:17.292Z,97177.84
2019-02-03T05:03:47.474Z,97171.47
2019-02-03T05:06:17.677Z,97175.49
2019-02-03T05:08:48.192Z,97183.24
2019-02-03T05:11:18.843Z,97185.48
2019-02-03T05:13:49.093Z,97192.45
2019-02-03T05:16:19.437Z,97191.43
2019-02-03T05:18:49.621Z,97193.55
2019-02-03T05:21:20.129Z,97194.61
2019-02-03T05:23:50.606Z,97196.52
2019-02-03T05:26:21.062Z,97198.63
2019-02-03T05:28:51.292Z,97201.30
2019-02-03T05:31:22.468Z,97204.75
2019-02-03T05:33:52.947Z,97204.76
2019-02-03T05:36:23.183Z,97211.43
2019-02-03T05:38:55.338Z,97215.50
2019-02-03T05:41:25.968Z,97224.35
2019-02-03T05:43:56.185Z,97223.30
2019-02-03T05:46:26.399Z,97235.63
2019-02-03T05:48:56.582Z,97245.00
2019-02-03T05:51:26.882Z,97251.38
2019-02-03T05:53:57.041Z,97259.39
2019-02-03T05:56:27.555Z,97268.98
2019-02-03T05:58:57.733Z,97279.14
2019-02-03T06:01:27.914Z,97286.41
2019-02-03T06:03:58.074Z,97289.37
2019-02-03T06:06:28.335Z,97290.43
2019-02-03T06:08:58.480Z,97298.21
2019-02-03T06:11:28.649Z,97311.84
2019-02-03T06:13:58.888Z,97317.73
2019-02-03T06:16:29.163Z,97323.88
2019-02-03T06:18:59.283Z,97332.17
2019-02-03T06:21:29.416Z,97336.42
2019-02-03T06:23:59.633Z,97340.19
2019-02-03T06:26:30.133Z,97353.02
2019-02-03T06:29:00.994Z,97357.58
2019-02-03T06:31:31.191Z,97365.32
2019-02-03T06:34:01.370Z,97373.58
2019-02-03T06:36:31.726Z,97389.34
2019-02-03T06:39:01.954Z,97386.15
2019-02-03T06:41:32.878Z,97398.97
2019-02-03T06:44:03.138Z,97395.77
2019-02-03T06:46:54.996Z,97401.37
2019-02-03T06:49:42.279Z,97411.23
2019-02-03T06:52:12.554Z,97417.39
2019-02-03T06:54:42.867Z,97427.54
2019-02-03T06:57:13.201Z,97436.35
2019-02-03T06:59:50.636Z,97445.44
2019-02-03T07:02:15.449Z,97451.02
2019-02-03T07:04:45.682Z,97460.66
2019-02-03T07:07:15.808Z,97470.78
2019-02-03T07:09:46.050Z,97467.05
2019-02-03T07:12:16.302Z,97476.93
2019-02-03T07:14:46.518Z,97485.48
2019-02-03T07:17:16.770Z,97488.69
2019-02-03T07:19:47.059Z,97492.15
2019-02-03T07:22:17.452Z,97500.14
2019-02-03T07:24:48.148Z,97506.30
2019-02-03T07:27:18.604Z,97508.44
2019-02-03T07:29:49.318Z,97514.81
2019-02-03T07:32:19.642Z,97527.05
2019-02-03T07:34:50.116Z,97537.96
2019-02-03T07:37:20.319Z,97544.89
2019-02-03T07:39:50.549Z,97547.52
2019-02-03T07:42:20.786Z,97554.67
2019-02-03T07:44:51.500Z,97559.48
2019-02-03T07:47:22.177Z,97562.41
2019-02-03T07:49:52.871Z,97569.62
2019-02-03T07:52:23.576Z,97572.34
2019-02-03T07:54:54.319Z,97575.25
2019-02-03T07:57:24.727Z,97583.00
2019-02-03T07:59:55.177Z,97591.50
2019-02-03T08:02:26.934Z,97597.09
2019-02-03T08:04:57.676Z,97594.72
2019-02-03T08:07:28.251Z,97594.13
2019-02-03T08:09:58.806Z,97601.89
2019-02-03T08:12:29.129Z,97614.61
2019-02-03T08:14:59.902Z,97621.06
2019-02-03T08:17:31.999Z,97620.78
2019-02-03T08:20:02.599Z,97630.17
2019-02-03T08:22:32.867Z,97629.06
2019-02-03T08:25:03.533Z,97629.86
2019-02-03T08:27:35.080Z,97641.86
2019-02-03T08:30:07.001Z,97645.87
2019-02-03T08:32:37.475Z,97653.36
2019-02-03T08:35:08.643Z,97653.91
2019-02-03T08:37:39.438Z,97655.52
2019-02-03T08:40:13.781Z,97665.11
2019-02-03T08:42:44.645Z,97666.44
2019-02-03T08:45:17.830Z,97679.55
2019-02-03T08:47:49.204Z,97683.30
2019-02-03T08:50:21.312Z,97695.00
2019-02-03T08:52:51.748Z,97694.17
2019-02-03T08:55:24.732Z,97701.03
2019-02-03T08:57:57.713Z,97712.80
2019-02-03T09:00:30.744Z,97715.77
2019-02-03T09:03:01.249Z,97723.91
2019-02-03T09:05:32.102Z,97733.09
2019-02-03T09:08:02.546Z,97734.87
2019-02-03T09:10:32.779Z,97740.70
2019-02-03T09:13:02.988Z,97747.65
2019-02-03T09:15:33.344Z,97752.23
2019-02-03T09:18:04.368Z,97751.65
2019-02-03T09:20:34.746Z,97756.95
2019-02-03T09:23:05.768Z,97775.39
2019-02-03T09:25:35.964Z,97772.20
2019-02-03T09:28:06.178Z,97775.95
2019-02-03T09:30:37.155Z,97787.72
2019-02-03T09:33:07.752Z,97782.79
2019-02-03T09:35:38.354Z,97792.03
2019-02-03T09:38:08.729Z,97787.05
2019-02-03T09:40:40.109Z,97790.67
2019-02-03T09:43:10.368Z,97795.80
2019-02-03T09:45:40.661Z,97804.91
2019-02-03T09:48:11.278Z,97806.01
2019-02-03T09:50:41.749Z,97809.22
2019-02-03T09:53:11.957Z,97816.91
2019-02-03T09:55:42.196Z,97818.23
2019-02-03T09:58:13.302Z,97830.36
2019-02-03T10:00:43.653Z,97827.72
2019-02-03T10:03:13.853Z,97830.16
2019-02-03T10:05:44.533Z,97837.64
2019-02-03T10:08:16.039Z,97842.00
2019-02-03T10:10:47.036Z,97847.42
2019-02-03T10:13:17.337Z,97859.20
2019-02-03T10:15:47.770Z,97864.03
2019-02-03T10:18:18.001Z,97867.11
2019-02-03T10:20:48.273Z,97860.50
2019-02-03T10:23:18.941Z,97877.35
2019-02-03T10:25:49.452Z,97880.91
2019-02-03T10:28:19.623Z,97885.36
2019-02-03T10:30:49.937Z,97887.50
2019-02-03T10:33:20.547Z,97896.91
2019-02-03T10:35:51.219Z,97903.34
2019-02-03T10:38:21.519Z,97903.52
2019-02-03T10:40:52.315Z,97907.29
2019-02-03T10:43:22.690Z,97904.36
2019-02-03T10:45:52.879Z,97913.24
2019-02-03T10:48:23.324Z,97914.31
2019-02-03T10:50:54.037Z,97912.48
2019-02-03T10:53:24.432Z,97916.86
2019-02-03T10:55:55.273Z,97912.37
2019-02-03T10:58:25.986Z,97921.14
2019-02-03T11:00:56.714Z,97923.78
2019-02-03T11:03:27.421Z,97922.27
2019-02-03T11:05:59.416Z,97929.98
2019-02-03T11:08:29.875Z,97929.52
2019-02-03T11:11:00.457Z,97933.23
2019-02-03T11:13:30.872Z,97935.75
2019-02-03T11:16:01.931Z,97941.64
2019-02-03T11:18:32.347Z,97940.31
2019-02-03T11:21:02.797Z,97941.02
2019-02-03T11:23:33.295Z,97942.87
2019-02-03T11:26:03.928Z,97946.32
2019-02-03T11:28:34.832Z,97953.98
2019-02-03T11:31:05.479Z,97955.88
2019-02-03T11:33:36.190Z,97952.85
2019-02-03T11:36:06.393Z,97963.88
2019-02-03T11:38:36.832Z,97968.79
2019-02-03T11:41:07.614Z,97972.03
2019-02-03T11:43:38.070Z,97971.66
2019-02-03T11:46:08.456Z,97972.91
2019-02-03T11:48:38.773Z,97977.11
2019-02-03T11:51:09.622Z,97972.74
2019-02-03T11:53:40.525Z,97981.05
2019-02-03T11:56:11.141Z,97983.35
2019-02-03T11:58:41.544Z,97985.30
2019-02-03T12:01:12.758Z,97983.91
2019-02-03T12:03:44.284Z,97984.42
2019-02-03T12:06:14.774Z,97989.05
2019-02-03T12:08:45.727Z,97991.52
2019-02-03T12:11:16.044Z,97994.45
2019-02-03T12:13:46.554Z,97994.73
2019-02-03T12:16:17.191Z,97997.84
2019-02-03T12:18:47.760Z,98006.70
2019-02-03T12:21:18.725Z,98003.08
2019-02-03T12:23:49.396Z,98005.88
2019-02-03T12:26:19.872Z,98005.55
2019-02-03T12:28:50.402Z,98014.97
2019-02-03T12:31:20.742Z,98014.97
2019-02-03T12:33:55.327Z,98015.97
2019-02-03T12:36:25.969Z,98022.27
2019-02-03T12:38:58.315Z,98029.47
2019-02-03T12:41:28.543Z,98030.50
2019-02-03T12:43:59.031Z,98029.58
2019-02-03T12:46:29.489Z,98036.42
2019-02-03T12:48:59.885Z,98039.52
2019-02-03T12:51:30.172Z,98037.80
2019-02-03T12:54:01.892Z,98040.01
2019-02-03T12:56:32.319Z,98040.79
2019-02-03T12:59:02.773Z,98036.13
2019-02-03T13:01:33.088Z,98036.13
2019-02-03T13:04:03.834Z,98053.07
2019-02-03T13:06:34.109Z,98045.15
2019-02-03T13:09:09.407Z,98051.90
2019-02-03T13:11:40.215Z,98061.51
2019-02-03T13:14:10.858Z,98061.80
2019-02-03T13:16:41.271Z,98061.20
2019-02-03T13:19:11.730Z,98072.09
2019-02-03T13:21:42.055Z,98073.42
2019-02-03T13:24:13.991Z,98076.80
2019-02-03T13:26:44.746Z,98080.95
2019-02-03T13:29:15.255Z,98087.00
2019-02-03T13:31:45.791Z,98089.38
2019-02-03T13:34:16.826Z,98093.70
2019-02-03T13:36:47.190Z,98103.35
2019-02-03T13:39:17.699Z,98106.36
2019-02-03T13:41:48.275Z,98106.84
2019-02-03T13:44:21.019Z,98118.22
2019-02-03T13:46:52.159Z,98117.44
2019-02-03T13:49:23.426Z,98115.69
2019-02-03T13:51:54.156Z,98119.89
2019-02-03T13:54:24.539Z,98125.83
2019-02-03T13:56:55.373Z,98130.91
2019-02-03T13:59:25.817Z,98135.14
2019-02-03T14:01:56.318Z,98146.97
2019-02-03T14:04:27.354Z,98149.56
2019-02-03T14:06:58.647Z,98153.77
2019-02-03T14:09:29.750Z,98167.50
2019-02-03T14:12:00.411Z,98174.98
2019-02-03T14:14:31.148Z,98178.05
2019-02-03T14:17:03.183Z,98186.06
2019-02-03T14:19:33.882Z,98186.79
2019-02-03T14:22:05.317Z,98190.23
2019-02-03T14:24:36.244Z,98189.63
2019-02-03T14:27:06.851Z,98193.09
2019-02-03T14:29:37.872Z,98204.44
2019-02-03T14:32:08.428Z,98208.48
2019-02-03T14:34:39.604Z,98206.47
2019-02-03T14:37:10.517Z,98218.53
2019-02-03T14:39:41.362Z,98218.39
2019-02-03T14:42:11.897Z,98219.77
2019-02-03T14:44:43.140Z,98233.61
2019-02-03T14:47:14.235Z,98234.80
2019-02-03T14:49:44.798Z,98233.47
2019-02-03T14:52:15.584Z,98245.09
2019-02-03T14:54:46.030Z,98248.30
2019-02-03T14:57:16.337Z,98247.46
2019-02-03T14:59:47.252Z,98257.33
2019-02-03T15:02:18.354Z,98251.11
2019-02-03T15:04:49.172Z,98263.33
2019-02-03T15:07:19.710Z,98262.91
2019-02-03T15:09:50.998Z,98270.36
2019-02-03T15:12:21.901Z,98274.72
2019-02-03T15:14:52.478Z,98281.60
2019-02-03T15:17:22.911Z,98282.69
2019-02-03T15:19:53.760Z,98293.26
2019-02-03T15:22:25.566Z,98291.16
2019-02-03T15:24:56.056Z,98305.36
2019-02-03T15:27:26.977Z,98305.52
2019-02-03T15:29:57.996Z,98311.84
2019-02-03T15:32:28.541Z,98317.19
2019-02-03T15:34:59.195Z,98320.92
2019-02-03T15:37:29.735Z,98332.68
2019-02-03T15:40:00.817Z,98335.46
2019-02-03T15:42:31.541Z,98341.16
2019-02-03T15:45:02.724Z,98343.20
2019-02-03T15:47:33.499Z,98335.28
2019-02-03T15:50:04.681Z,98347.04
2019-02-03T15:52:35.122Z,98352.27
2019-02-03T15:55:06.244Z,98359.25
2019-02-03T15:57:36.917Z,98363.14
2019-02-03T16:00:13.480Z,98369.25
2019-02-03T16:02:44.300Z,98365.20
2019-02-03T16:05:15.138Z,98375.92
2019-02-03T16:07:45.781Z,98379.63
2019-02-03T16:10:19.057Z,98381.41
2019-02-03T16:12:50.340Z,98388.80
2019-02-03T16:15:21.165Z,98392.79
2019-02-03T16:17:51.589Z,98402.19
2019-02-03T16:20:24.042Z,98406.89
2019-02-03T16:22:54.914Z,98409.20
2019-02-03T16:25:25.466Z,98409.31
2019-02-03T16:27:56.168Z,98416.50
2019-02-03T16:30:30.785Z,98421.56
2019-02-03T16:33:01.877Z,98431.17
2019-02-03T16:35:33.016Z,98430.14
2019-02-03T16:38:04.118Z,98436.81
2019-02-03T16:40:35.168Z,98453.09
2019-02-03T16:43:06.301Z,98454.61
2019-02-03T16:45:37.432Z,98469.02
2019-02-03T16:48:08.174Z,98467.50
2019-02-03T16:50:39.012Z,98475.38
2019-02-03T16:53:10.759Z,98476.33
2019-02-03T16:55:43.002Z,98480.27
2019-02-03T16:58:13.693Z,98487.52
2019-02-03T17:00:45.193Z,98487.22
2019-02-03T17:03:15.965Z,98499.00
2019-02-03T17:05:46.920Z,98506.44
2019-02-03T17:08:17.595Z,98513.38
2019-02-03T17:10:48.508Z,98515.07
2019-02-03T17:13:19.269Z,98523.41
2019-02-03T17:16:12.121Z,98528.35
2019-02-03T17:18:42.909Z,98535.02
2019-02-03T17:21:13.450Z,98546.20
2019-02-03T17:23:44.220Z,98547.02
2019-02-03T17:26:16.011Z,98562.27
2019-02-03T17:28:46.746Z,98567.36
2019-02-03T17:31:17.496Z,98574.66
2019-02-03T17:33:48.164Z,98576.55
2019-02-03T17:36:19.065Z,98579.48
2019-02-03T17:38:49.680Z,98582.73
2019-02-03T17:41:20.402Z,98585.58
2019-02-03T17:43:50.939Z,98592.82
2019-02-03T17:46:21.482Z,98599.25
2019-02-03T17:48:53.206Z,98606.91
2019-02-03T17:51:24.030Z,98613.59
2019-02-03T17:53:55.556Z,98620.31
2019-02-03T17:56:26.277Z,98629.41
2019-02-03T17:58:56.772Z,98630.47
2019-02-03T18:01:28.327Z,98635.75
2019-02-03T18:03:58.679Z,98644.56
2019-02-03T18:06:29.746Z,98652.13
2019-02-03T18:09:00.116Z,98650.52
2019-02-03T18:11:35.905Z,98658.80
2019-02-03T18:14:03.427Z,98664.13
2019-02-03T18:16:34.382Z,98665.06
2019-02-03T18:19:05.141Z,98672.48
2019-02-03T18:21:36.336Z,98673.81
2019-02-03T18:24:07.450Z,98682.97
2019-02-03T18:26:38.099Z,98687.45
2019-02-03T18:29:08.865Z,98696.78
2019-02-03T18:31:39.336Z,98704.63
2019-02-03T18:34:10.085Z,98706.13
2019-02-03T18:36:40.916Z,98706.16
2019-02-03T18:39:12.118Z,98708.11
2019-02-03T18:41:43.980Z,98718.47
2019-02-03T18:44:14.460Z,98718.91
2019-02-03T18:46:45.337Z,98724.55
2019-02-03T18:49:15.868Z,98727.45
2019-02-03T18:51:46.776Z,98734.23
2019-02-03T18:54:17.231Z,98737.72
2019-02-03T18:56:47.601Z,98740.92
2019-02-03T18:59:18.501Z,98744.31
2019-02-03T19:01:48.958Z,98747.66
2019-02-03T19:04:19.961Z,98750.13
2019-02-03T19:06:50.727Z,98758.13
2019-02-03T19:09:21.272Z,98760.14
2019-02-03T19:11:51.837Z,98761.23
2019-02-03T19:14:22.352Z,98762.48
2019-02-03T19:16:53.444Z,98766.64
2019-02-03T19:19:24.045Z,98770.73
2019-02-03T19:21:54.409Z,98781.63
2019-02-03T19:24:25.241Z,98783.59
2019-02-03T19:26:55.559Z,98788.41
2019-02-03T19:29:26.696Z,98788.34
2019-02-03T19:31:56.928Z,98785.33
2019-02-03T19:34:27.551Z,98794.88
2019-02-03T19:37:05.191Z,98799.23
2019-02-03T19:39:30.459Z,98802.13
2019-02-03T19:42:01.577Z,98806.41
2019-02-03T19:44:31.946Z,98814.41
2019-02-03T19:47:02.692Z,98816.64
2019-02-03T19:49:33.276Z,98820.22
2019-02-03T19:52:03.822Z,98823.59
2019-02-03T19:54:35.018Z,98830.58
2019-02-03T19:57:05.546Z,98830.72
2019-02-03T19:59:46.313Z,98836.33
2019-02-03T20:02:10.953Z,98835.23
2019-02-03T20:04:41.192Z,98844.64
2019-02-03T20:07:12.366Z,98850.73
2019-02-03T20:09:43.048Z,98850.73
2019-02-03T20:12:13.544Z,98852.92
2019-02-03T20:14:43.906Z,98856.81
2019-02-03T20:17:14.568Z,98865.09
2019-02-03T20:19:46.437Z,98866.34
2019-02-03T20:22:17.592Z,98875.47
2019-02-03T20:24:47.864Z,98874.80
2019-02-03T20:27:18.902Z,98877.47
2019-02-03T20:29:49.559Z,98881.76
2019-02-03T20:32:20.267Z,98894.89
2019-02-03T20:34:50.893Z,98896.06
2019-02-03T20:37:21.339Z,98902.22
2019-02-03T20:40:01.727Z,98912.50
2019-02-03T20:42:23.913Z,98909.25
2019-02-03T20:44:54.954Z,98917.25
2019-02-03T20:47:25.456Z,98921.69
2019-02-03T20:49:55.957Z,98924.73
2019-02-03T20:52:26.470Z,98928.15
2019-02-03T20:54:57.272Z,98933.84
2019-02-03T20:57:27.765Z,98936.36
2019-02-03T20:59:58.048Z,98939.77
2019-02-03T21:02:28.537Z,98945.25
2019-02-03T21:04:59.145Z,98944.82
2019-02-03T21:07:29.570Z,98945.61
2019-02-03T21:10:00.300Z,98954.90
2019-02-03T21:12:30.780Z,98953.84
2019-02-03T21:15:01.351Z,98959.92
2019-02-03T21:17:32.947Z,98959.61
2019-02-03T21:20:03.665Z,98964.58
2019-02-03T21:22:34.020Z,98967.91
2019-02-03T21:25:04.837Z,98976.97
2019-02-03T21:27:35.398Z,98976.36
2019-02-03T21:30:09.118Z,98978.28
2019-02-03T21:32:39.395Z,98980.08
2019-02-03T21:35:10.409Z,98988.08
2019-02-03T21:37:40.965Z,98987.17
2019-02-03T21:40:20.558Z,98991.25
2019-02-03T21:42:50.911Z,98996.14
2019-02-03T21:45:21.861Z,98998.58
2019-02-03T21:47:52.498Z,98997.75
2019-02-03T21:50:25.276Z,99007.17
2019-02-03T21:52:55.863Z,99010.15
2019-02-03T21:55:25.975Z,99009.02
2019-02-03T21:57:56.412Z,99013.18
2019-02-03T22:00:29.083Z,99020.81
2019-02-03T22:02:59.268Z,99017.41
2019-02-03T22:05:30.303Z,99025.92
2019-02-03T22:08:00.668Z,99021.69
2019-02-03T22:10:35.692Z,99022.59
2019-02-03T22:13:06.771Z,99026.91
2019-02-03T22:15:37.748Z,99020.36
2019-02-03T22:18:08.282Z,99031.77
2019-02-03T22:20:38.701Z,99031.63
2019-02-03T22:23:08.833Z,99036.48
2019-02-03T22:25:39.261Z,99038.70
2019-02-03T22:28:09.713Z,99043.30
2019-02-03T22:30:41.107Z,99047.83
2019-02-03T22:33:11.290Z,99053.39
2019-02-03T22:35:41.611Z,99051.17
2019-02-03T22:38:13.452Z,99061.75
2019-02-03T22:40:43.926Z,99063.77
2019-02-03T22:43:14.191Z,99066.23
2019-02-03T22:45:44.613Z,99072.08
2019-02-03T22:48:14.773Z,99074.30
2019-02-03T22:50:45.466Z,99070.23
2019-02-03T22:53:15.952Z,99071.69
2019-02-03T22:55:46.165Z,99075.91
2019-02-03T22:58:16.415Z,99083.28
2019-02-03T23:01:18.416Z,99084.48
2019-02-03T23:03:54.585Z,99089.70
2019-02-03T23:06:27.799Z,99084.08
2019-02-03T23:09:01.174Z,99093.28
2019-02-03T23:11:31.395Z,99089.59
2019-02-03T23:14:04.504Z,99092.36
2019-02-03T23:16:33.750Z,99096.96
2019-02-03T23:19:04.495Z,99105.78
2019-02-03T23:21:35.629Z,99110.02
2019-02-03T23:24:06.005Z,99113.70
2019-02-03T23:26:37.420Z,99116.69
2019-02-03T23:29:07.714Z,99116.09
2019-02-03T23:31:37.950Z,99125.70
2019-02-03T23:34:08.803Z,99130.02
2019-02-03T23:36:39.113Z,99123.91
2019-02-03T23:39:23.086Z,99124.10
2019-02-03T23:41:53.246Z,99128.37
2019-02-03T23:44:23.877Z,99134.58
2019-02-03T23:46:54.521Z,99134.58
2019-02-03T23:49:24.691Z,99139.77
2019-02-03T23:51:55.215Z,99139.03
2019-02-03T23:54:25.870Z,99146.30
2019-02-03T23:56:56.152Z,99150.67
2019-02-03T23:59:26.625Z,99148.52
